Time;durP1;ratioP1;P1;durP2;ratioP2;P2;SDS_P1;SDS_P2;PMS_P1;PMS_P2;Temp;Humidity;BMP_temperature;BMP_pressure;BME280_temperature;BME280_humidity;BME280_pressure;Samples;Min_cycle;Max_cycle;Signal;HPM_P1;HPM_P2
2021/03/04 00:01:25;;;;;;;48.02;18.25;;;;;;;-2.07;95.29;99854.34;1716265;83;21576;-65
2021/03/04 00:03:53;;;;;;;46.37;17.65;;;;;;;-2.08;95.42;99847.31;1716150;83;21593;-66
2021/03/04 00:06:22;;;;;;;37.90;16.30;;;;;;;-2.07;95.60;99846.27;1716272;83;21216;-66
2021/03/04 00:08:49;;;;;;;41.55;17.90;;;;;;;-2.05;95.83;99840.14;1716045;82;21092;-66
2021/03/04 00:11:18;;;;;;;48.73;18.37;;;;;;;-1.99;96.06;99835.72;1716427;83;21021;-65
2021/03/04 00:13:46;;;;;;;48.25;20.30;;;;;;;-1.94;96.25;99824.28;1716407;83;20942;-65
2021/03/04 00:16:13;;;;;;;46.40;19.45;;;;;;;-1.94;96.29;99814.34;1714207;82;21129;-65
2021/03/04 00:18:41;;;;;;;50.33;19.65;;;;;;;-1.90;96.38;99817.39;1713726;83;21228;-66
2021/03/04 00:21:09;;;;;;;49.45;19.45;;;;;;;-1.87;96.47;99807.52;1713685;83;21195;-66
2021/03/04 00:23:36;;;;;;;53.33;20.82;;;;;;;-1.84;96.64;99809.23;1713779;83;21131;-66
2021/03/04 00:26:04;;;;;;;55.10;21.45;;;;;;;-1.82;96.76;99798.23;1713765;82;21089;-66
2021/03/04 00:28:32;;;;;;;52.20;20.65;;;;;;;-1.82;96.89;99795.02;1713750;83;21140;-66
2021/03/04 00:30:59;;;;;;;57.10;22.07;;;;;;;-1.82;97.02;99788.30;1713838;83;22103;-66
2021/03/04 00:33:28;;;;;;;58.30;22.40;;;;;;;-1.78;97.25;99785.45;1713773;83;21139;-66
2021/03/04 00:35:56;;;;;;;57.08;22.65;;;;;;;-1.76;97.41;99779.83;1734058;82;21125;-66
2021/03/04 00:38:23;;;;;;;54.38;21.00;;;;;;;-1.76;97.65;99773.92;1743436;81;21086;-66
2021/03/04 00:40:52;;;;;;;64.70;23.52;;;;;;;-1.75;97.91;99761.28;1743383;82;21176;-66
2021/03/04 00:43:19;;;;;;;78.35;25.10;;;;;;;-1.74;98.08;99758.36;1707869;84;21584;-67
2021/03/04 00:45:47;;;;;;;61.18;23.35;;;;;;;-1.72;98.36;99752.20;1707834;84;20956;-67
2021/03/04 00:48:15;;;;;;;65.65;23.75;;;;;;;-1.70;98.49;99742.55;1707964;83;21134;-66
2021/03/04 00:50:44;;;;;;;69.40;25.37;;;;;;;-1.66;98.82;99738.34;1679872;84;21150;-66
2021/03/04 00:53:12;;;;;;;66.02;24.30;;;;;;;-1.64;99.02;99732.73;1708067;84;21168;-66
2021/03/04 00:55:39;;;;;;;65.87;25.00;;;;;;;-1.62;99.13;99732.79;1707969;83;21386;-67
2021/03/04 00:58:07;;;;;;;62.73;23.80;;;;;;;-1.58;99.29;99727.77;1743281;82;21054;-66
2021/03/04 01:00:34;;;;;;;64.70;26.20;;;;;;;-1.55;99.37;99729.47;1707958;84;21019;-65
2021/03/04 01:03:02;;;;;;;68.83;26.00;;;;;;;-1.50;99.48;99729.59;1743307;82;21636;-65
2021/03/04 01:05:30;;;;;;;65.80;26.23;;;;;;;-1.46;99.56;99728.07;1707791;83;21189;-65
2021/03/04 01:07:58;;;;;;;65.37;25.12;;;;;;;-1.40;99.67;99716.89;1679474;84;21389;-65
2021/03/04 01:10:30;;;;;;;69.87;26.35;;;;;;;-1.35;99.74;99707.06;1707955;84;21137;-65
2021/03/04 01:12:58;;;;;;;60.55;23.27;;;;;;;-1.30;99.78;99700.16;1707870;84;25089;-65
2021/03/04 01:15:25;;;;;;;66.85;26.42;;;;;;;-1.27;99.78;99692.95;1708607;83;21113;-66
2021/03/04 01:17:54;;;;;;;70.87;27.80;;;;;;;-1.22;99.78;99687.68;1710208;83;21649;-66
2021/03/04 01:20:21;;;;;;;71.12;27.30;;;;;;;-1.20;99.76;99680.19;1710148;83;22010;-67
2021/03/04 01:22:49;;;;;;;67.15;27.25;;;;;;;-1.16;99.75;99680.01;1710096;82;21224;-68
2021/03/04 01:25:18;;;;;;;72.20;27.02;;;;;;;-1.15;99.71;99681.09;1710103;83;21077;-69
2021/03/04 01:27:47;;;;;;;66.47;25.72;;;;;;;-1.15;99.61;99680.27;1710330;83;21550;-68
2021/03/04 01:30:16;;;;;;;72.05;26.95;;;;;;;-1.15;99.59;99669.48;1710282;82;21157;-68
2021/03/04 01:32:44;;;;;;;65.03;25.12;;;;;;;-1.13;99.61;99670.08;1705454;83;21374;-69
2021/03/04 01:35:13;;;;;;;64.35;26.27;;;;;;;-1.15;99.48;99664.10;1680615;83;21173;-65
2021/03/04 01:37:40;;;;;;;61.65;24.35;;;;;;;-1.19;99.24;99662.97;1746190;82;21109;-65
2021/03/04 01:40:11;;;;;;;62.88;25.20;;;;;;;-1.23;99.04;99655.06;1745890;81;21180;-65
2021/03/04 01:42:39;;;;;;;64.50;25.02;;;;;;;-1.28;98.87;99648.22;1710182;83;21209;-65
2021/03/04 01:45:08;;;;;;;71.35;26.12;;;;;;;-1.34;98.74;99643.25;1710088;83;21405;-65
2021/03/04 01:47:38;;;;;;;69.55;27.22;;;;;;;-1.37;98.67;99635.11;1745877;82;21097;-66
2021/03/04 01:50:09;;;;;;;84.67;31.07;;;;;;;-1.42;98.51;99626.10;1746012;82;21066;-67
2021/03/04 01:52:37;;;;;;;94.35;36.33;;;;;;;-1.46;98.44;99628.44;1710175;83;21629;-68
2021/03/04 01:55:08;;;;;;;81.67;32.95;;;;;;;-1.49;98.37;99623.53;1745943;82;21065;-68
2021/03/04 01:57:36;;;;;;;77.55;31.68;;;;;;;-1.52;98.34;99617.80;1746143;82;22767;-68
2021/03/04 02:00:06;;;;;;;80.92;31.70;;;;;;;-1.56;98.31;99614.75;1724848;82;21546;-67
2021/03/04 02:02:36;;;;;;;72.00;28.83;;;;;;;-1.58;98.30;99606.62;1710290;83;21486;-66
2021/03/04 02:05:12;;;;;;;70.08;26.45;;;;;;;-1.60;98.31;99603.34;1745891;82;21101;-66
2021/03/04 02:08:06;;;;;;;67.58;27.00;;;;;;;-1.64;98.25;99594.91;1745941;82;21133;-68
2021/03/04 02:10:44;;;;;;;68.22;25.62;;;;;;;-1.66;98.22;99590.30;1710104;83;21383;-68
2021/03/04 02:13:34;;;;;;;59.80;23.50;;;;;;;-1.70;98.19;99582.39;1745803;82;21149;-68
2021/03/04 02:16:25;;;;;;;61.75;23.85;;;;;;;-1.74;98.13;99579.91;1709934;83;21026;-66
2021/03/04 02:18:58;;;;;;;61.77;25.00;;;;;;;-1.76;98.11;99582.84;1742766;82;21159;-67
2021/03/04 02:21:43;;;;;;;61.15;24.60;;;;;;;-1.80;98.18;99577.62;1746264;82;21121;-66
2021/03/04 02:24:22;;;;;;;59.13;24.60;;;;;;;-1.82;98.22;99579.73;1710142;83;21378;-67
2021/03/04 02:27:18;;;;;;;56.68;23.35;;;;;;;-1.83;98.26;99575.41;1745908;82;21674;-68
2021/03/04 02:29:54;;;;;;;55.95;23.65;;;;;;;-1.87;98.27;99570.73;1710106;83;21129;-67
2021/03/04 02:32:23;;;;;;;61.00;24.90;;;;;;;-1.90;98.35;99568.50;1705567;83;21215;-67
2021/03/04 02:34:57;;;;;;;73.30;28.20;;;;;;;-1.90;98.47;99565.81;1703060;83;21207;-68
2021/03/04 02:37:24;;;;;;;66.92;26.55;;;;;;;-1.91;98.64;99562.30;1716381;83;22282;-67
2021/03/04 02:39:53;;;;;;;61.18;25.32;;;;;;;-1.92;98.73;99559.31;1716228;83;21172;-67
2021/03/04 02:42:23;;;;;;;64.70;26.15;;;;;;;-1.92;98.75;99551.77;1716312;83;21001;-67
2021/03/04 02:44:54;;;;;;;63.60;24.57;;;;;;;-1.93;98.79;99542.88;1716099;83;21186;-67
2021/03/04 02:47:22;;;;;;;63.65;27.02;;;;;;;-1.93;98.87;99540.72;1731085;82;21196;-68
2021/03/04 02:49:50;;;;;;;69.17;28.12;;;;;;;-1.94;98.96;99541.24;1716246;82;21601;-68
2021/03/04 02:52:18;;;;;;;64.37;26.23;;;;;;;-1.94;99.06;99527.80;1745956;82;21093;-67
2021/03/04 02:54:46;;;;;;;73.25;29.82;;;;;;;-1.94;99.16;99526.45;1724822;82;21022;-68
2021/03/04 02:57:14;;;;;;;72.53;28.23;;;;;;;-1.93;99.25;99524.58;1745816;82;21160;-67
2021/03/04 02:59:42;;;;;;;67.92;28.62;;;;;;;-1.92;99.36;99516.80;1746091;82;21153;-68
2021/03/04 03:02:11;;;;;;;68.92;27.98;;;;;;;-1.89;99.54;99517.14;1746047;82;21191;-67
2021/03/04 03:04:40;;;;;;;74.03;29.50;;;;;;;-1.85;99.68;99520.19;1745731;82;21069;-67
2021/03/04 03:07:09;;;;;;;64.77;27.90;;;;;;;-1.85;99.74;99521.00;1745943;82;21077;-67
2021/03/04 03:09:39;;;;;;;69.80;27.50;;;;;;;-1.83;99.71;99513.52;1745893;82;21073;-67
2021/03/04 03:12:09;;;;;;;73.87;28.55;;;;;;;-1.83;99.74;99502.75;1693921;83;21200;-67
2021/03/04 03:14:36;;;;;;;72.20;28.57;;;;;;;-1.82;99.78;99502.22;1716360;83;22240;-67
2021/03/04 03:17:06;;;;;;;76.12;30.72;;;;;;;-1.80;99.79;99493.39;1716328;83;21183;-67
2021/03/04 03:19:36;;;;;;;86.30;30.17;;;;;;;-1.81;99.71;99491.22;1716661;83;21542;-67
2021/03/04 03:22:06;;;;;;;73.57;29.63;;;;;;;-1.79;99.71;99489.64;1716664;82;21084;-68
2021/03/04 03:24:35;;;;;;;74.82;30.25;;;;;;;-1.80;99.75;99484.78;1716463;83;21088;-68
2021/03/04 03:27:03;;;;;;;85.80;31.45;;;;;;;-1.78;99.78;99476.48;1716426;83;21208;-67
2021/03/04 03:29:31;;;;;;;73.15;29.48;;;;;;;-1.79;99.75;99477.00;1696604;83;21588;-66
2021/03/04 03:32:00;;;;;;;77.75;30.35;;;;;;;-1.78;99.77;99469.75;1737675;82;21057;-67
2021/03/04 03:34:28;;;;;;;82.53;30.17;;;;;;;-1.78;99.76;99466.53;1722073;80;21188;-67
2021/03/04 03:36:56;;;;;;;73.87;30.75;;;;;;;-1.78;99.73;99464.37;1716635;82;21080;-68
2021/03/04 03:39:23;;;;;;;70.35;28.50;;;;;;;-1.78;99.72;99463.02;1716491;83;23597;-67
2021/03/04 03:41:51;;;;;;;72.12;28.92;;;;;;;-1.78;99.71;99463.02;1716477;83;20973;-67
2021/03/04 03:44:19;;;;;;;73.70;28.15;;;;;;;-1.79;99.71;99463.55;1716690;83;21044;-67
2021/03/04 03:46:47;;;;;;;76.17;30.08;;;;;;;-1.78;99.76;99461.67;1716458;82;21140;-67
2021/03/04 03:49:15;;;;;;;70.75;27.30;;;;;;;-1.76;99.85;99464.95;1716640;83;21021;-67
2021/03/04 03:51:43;;;;;;;72.75;28.30;;;;;;;-1.75;99.91;99456.64;1696627;83;21221;-67
2021/03/04 03:54:12;;;;;;;76.30;29.07;;;;;;;-1.74;99.92;99446.16;1716640;83;21797;-67
2021/03/04 03:56:40;;;;;;;74.47;31.40;;;;;;;-1.73;99.93;99441.04;1716734;83;21576;-68
2021/03/04 03:59:08;;;;;;;67.15;27.05;;;;;;;-1.73;99.95;99440.22;1716713;83;21088;-67
2021/03/04 04:01:36;;;;;;;74.32;28.10;;;;;;;-1.72;99.98;99433.78;1696266;83;21159;-67
2021/03/04 04:04:05;;;;;;;75.78;30.02;;;;;;;-1.72;99.97;99428.40;1716634;83;21427;-67
2021/03/04 04:06:34;;;;;;;76.42;30.40;;;;;;;-1.72;99.92;99420.33;1716708;83;21516;-67
2021/03/04 04:09:02;;;;;;;71.55;29.45;;;;;;;-1.72;99.90;99409.56;1716543;83;21127;-66
2021/03/04 04:11:30;;;;;;;70.90;27.70;;;;;;;-1.70;100.00;99415.52;1716746;83;21167;-66
2021/03/04 04:13:58;;;;;;;78.57;29.02;;;;;;;-1.70;100.00;99397.50;1716733;83;21057;-66
2021/03/04 04:16:26;;;;;;;71.45;29.87;;;;;;;-1.70;100.00;99390.77;1712910;82;21819;-68
2021/03/04 04:18:55;;;;;;;77.55;30.65;;;;;;;-1.70;99.92;99380.53;1706336;83;21026;-66
2021/03/04 04:21:23;;;;;;;71.05;27.70;;;;;;;-1.71;99.89;99376.20;1706467;84;21628;-67
2021/03/04 04:23:52;;;;;;;75.35;29.65;;;;;;;-1.72;99.85;99367.31;1706345;83;21136;-68
2021/03/04 04:26:20;;;;;;;72.62;28.75;;;;;;;-1.71;99.81;99370.83;1726831;82;21015;-67
2021/03/04 04:28:48;;;;;;;69.60;26.23;;;;;;;-1.71;99.83;99361.41;1735300;82;22365;-68
2021/03/04 04:31:15;;;;;;;70.12;28.40;;;;;;;-1.71;99.84;99351.45;1735203;82;21916;-70
2021/03/04 04:33:44;;;;;;;69.27;29.20;;;;;;;-1.72;99.72;99369.19;1735738;82;20911;-71
2021/03/04 04:36:12;;;;;;;90.67;33.10;;;;;;;-1.77;99.50;99355.14;1705662;82;21597;-66
2021/03/04 04:38:39;;;;;;;86.10;32.78;;;;;;;-1.78;99.54;99352.69;1698127;84;21638;-67
2021/03/04 04:41:07;;;;;;;132.22;47.98;;;;;;;-1.79;99.62;99351.87;1697807;84;21374;-71
2021/03/04 04:43:34;;;;;;;105.00;39.42;;;;;;;-1.78;99.79;99342.74;1698254;84;21095;-73
2021/03/04 04:46:02;;;;;;;83.80;34.75;;;;;;;-1.75;99.92;99348.17;1698162;84;21011;-75
2021/03/04 04:48:30;;;;;;;81.47;31.80;;;;;;;-1.72;100.00;99335.55;1698307;84;21150;-74
2021/03/04 04:50:59;;;;;;;81.02;32.13;;;;;;;-1.69;100.00;99336.41;1695632;84;21181;-80
2021/03/04 04:53:27;;;;;;;81.42;32.60;;;;;;;-1.66;100.00;99341.31;1698376;84;21156;-83
2021/03/04 04:55:55;;;;;;;82.92;31.77;;;;;;;-1.63;100.00;99342.18;1698490;84;20924;-71
2021/03/04 04:58:23;;;;;;;73.60;29.65;;;;;;;-1.60;100.00;99333.62;1697761;84;21035;-83
2021/03/04 05:00:51;;;;;;;83.60;29.82;;;;;;;-1.56;100.00;99334.77;1705570;83;21620;-71
2021/03/04 05:03:18;;;;;;;80.30;31.33;;;;;;;-1.53;100.00;99328.09;1722164;82;21114;-69
2021/03/04 05:05:46;;;;;;;81.25;32.83;;;;;;;-1.50;100.00;99325.73;1735758;82;21205;-75
2021/03/04 05:08:14;;;;;;;76.90;31.07;;;;;;;-1.46;100.00;99317.45;1735643;82;21023;-75
2021/03/04 05:10:42;;;;;;;83.60;33.38;;;;;;;-1.41;100.00;99314.03;1735619;82;21219;-67
2021/03/04 05:13:10;;;;;;;78.57;32.38;;;;;;;-1.37;100.00;99311.14;1735914;82;21647;-74
2021/03/04 05:15:37;;;;;;;77.85;29.52;;;;;;;-1.32;100.00;99305.84;1735839;82;21572;-79
2021/03/04 05:18:06;;;;;;;87.57;30.52;;;;;;;-1.27;100.00;99296.50;1724170;81;22374;-68
2021/03/04 05:20:33;;;;;;;80.12;30.43;;;;;;;-1.21;100.00;99298.22;1755022;81;21152;-70
2021/03/04 05:23:01;;;;;;;80.80;30.95;;;;;;;-1.16;100.00;99292.09;1756774;81;21120;-68
2021/03/04 05:25:29;;;;;;;80.15;31.17;;;;;;;-1.11;100.00;99289.45;1756733;81;21065;-71
2021/03/04 05:27:56;;;;;;;78.07;31.33;;;;;;;-1.06;100.00;99284.95;1756608;81;21044;-70
2021/03/04 05:30:26;;;;;;;82.35;32.95;;;;;;;-0.99;100.00;99286.14;1756846;81;21477;-72
2021/03/04 05:32:53;;;;;;;76.10;30.45;;;;;;;-0.93;100.00;99284.34;1756751;81;21009;-70
2021/03/04 05:35:21;;;;;;;80.65;31.50;;;;;;;-0.87;100.00;99285.51;1756743;81;21026;-72
2021/03/04 05:37:49;;;;;;;73.47;28.52;;;;;;;-0.78;100.00;99283.21;1756339;81;21124;-71
2021/03/04 05:40:17;;;;;;;73.07;29.10;;;;;;;-0.69;100.00;99286.58;1756595;81;21069;-70
2021/03/04 05:42:45;;;;;;;71.85;30.10;;;;;;;-0.60;100.00;99282.92;1756680;81;21448;-70
2021/03/04 05:45:15;;;;;;;75.35;29.77;;;;;;;-0.49;100.00;99283.31;1755865;81;21156;-69
2021/03/04 05:47:43;;;;;;;74.60;30.30;;;;;;;-0.38;100.00;99281.03;1756586;81;21049;-77
2021/03/04 05:50:14;;;;;;;77.37;30.08;;;;;;;-0.27;100.00;99275.23;1756286;81;21164;-75
2021/03/04 05:52:50;;;;;;;65.28;28.35;;;;;;;-0.14;99.94;99268.10;1726737;83;21761;-77
2021/03/04 05:55:18;;;;;;;76.25;28.92;;;;;;;0.00;99.78;99261.22;1726730;83;22349;-74
2021/03/04 05:57:46;;;;;;;71.20;30.52;;;;;;;0.16;99.43;99260.03;1726695;83;21151;-70
2021/03/04 06:00:15;;;;;;;73.35;29.37;;;;;;;0.30;99.03;99258.55;1726711;83;21132;-84
2021/03/04 06:02:43;;;;;;;67.22;29.75;;;;;;;0.45;98.47;99261.39;1726767;81;21651;-78
2021/03/04 06:05:13;;;;;;;72.03;29.10;;;;;;;0.59;98.11;99249.06;1726645;83;21161;-77
2021/03/04 06:07:44;;;;;;;72.70;28.60;;;;;;;0.74;97.36;99246.20;1726683;83;21356;-75
2021/03/04 06:10:13;;;;;;;75.70;29.27;;;;;;;0.88;96.92;99226.59;1726289;83;21191;-81
2021/03/04 06:12:42;;;;;;;73.33;30.02;;;;;;;1.00;96.31;99227.75;1726746;83;21548;-79
2021/03/04 06:15:12;;;;;;;73.83;30.25;;;;;;;1.11;95.74;99228.63;1726436;83;21639;-81
2021/03/04 06:17:39;;;;;;;63.60;27.65;;;;;;;1.21;95.06;99242.98;1715715;83;21185;-84
2021/03/04 06:20:10;;;;;;;68.57;28.50;;;;;;;1.31;94.37;99235.47;1682195;84;21192;-89
2021/03/04 06:22:38;;;;;;;69.40;28.98;;;;;;;1.40;93.92;99234.44;1711273;83;21136;-74
2021/03/04 06:25:08;;;;;;;79.62;32.17;;;;;;;1.51;93.32;99226.64;1699340;83;21082;-76
2021/03/04 06:27:39;;;;;;;70.92;30.12;;;;;;;1.62;92.97;99225.61;1715363;83;21145;-76
2021/03/04 06:30:14;;;;;;;68.90;28.25;;;;;;;1.74;92.03;99221.29;1715845;83;21172;-74
2021/03/04 06:32:57;;;;;;;71.82;29.37;;;;;;;1.88;91.43;99215.11;1715569;83;22146;-71
2021/03/04 06:35:37;;;;;;;70.95;28.52;;;;;;;2.06;90.61;99215.69;1715575;83;21110;-73
2021/03/04 06:38:18;;;;;;;62.90;29.05;;;;;;;2.26;89.96;99206.25;1726683;82;21074;-70
2021/03/04 06:40:46;;;;;;;70.35;28.45;;;;;;;2.47;88.35;99202.44;1737738;82;21592;-74
2021/03/04 06:43:21;;;;;;;75.35;30.48;;;;;;;2.66;87.63;99193.22;1737917;82;21560;-75
2021/03/04 06:45:49;;;;;;;68.17;29.52;;;;;;;2.81;86.31;99185.08;1734310;82;21629;-75
2021/03/04 06:48:21;;;;;;;68.90;29.02;;;;;;;2.93;85.53;99195.60;1706376;84;21149;-77
2021/03/04 06:50:50;;;;;;;66.30;26.27;;;;;;;3.04;84.06;99178.22;1706856;84;20967;-74
2021/03/04 06:53:22;;;;;;;70.80;30.52;;;;;;;3.16;83.20;99180.09;1726825;82;21506;-71
2021/03/04 06:56:02;;;;;;;68.78;28.32;;;;;;;3.27;83.21;99170.02;1721269;82;21488;-73
2021/03/04 06:58:33;;;;;;;68.42;28.42;;;;;;;3.41;82.54;99174.31;1716516;82;21283;-72
2021/03/04 07:01:16;;;;;;;63.42;27.90;;;;;;;3.54;81.55;99177.75;1713720;82;21247;-76
2021/03/04 07:03:54;;;;;;;59.85;27.17;;;;;;;3.70;80.76;99172.52;1720006;82;21583;-78
2021/03/04 07:06:25;;;;;;;58.78;27.05;;;;;;;3.94;80.02;99165.87;1712009;82;21198;-73
2021/03/04 07:08:53;;;;;;;56.15;25.52;;;;;;;4.35;77.99;99162.29;1710042;83;21211;-74
2021/03/04 07:11:25;;;;;;;70.72;30.57;;;;;;;4.85;75.46;99146.59;1707153;83;21348;-81
2021/03/04 07:13:53;;;;;;;63.28;28.05;;;;;;;5.34;73.81;99150.37;1726417;82;21018;-76
2021/03/04 07:16:24;;;;;;;53.68;26.37;;;;;;;5.86;73.07;99149.38;1737780;82;20987;-80
2021/03/04 07:18:55;;;;;;;60.92;25.55;;;;;;;6.37;70.18;99136.34;1707702;83;21605;-77
2021/03/04 07:21:24;;;;;;;52.75;24.85;;;;;;;6.79;67.81;99129.09;1741729;81;21577;-74
2021/03/04 07:23:51;;;;;;;55.12;25.52;;;;;;;7.09;66.46;99124.95;1736741;81;21388;-72
2021/03/04 07:26:21;;;;;;;63.45;27.98;;;;;;;7.12;64.74;99116.16;1744877;81;21144;-75
2021/03/04 07:28:51;;;;;;;60.35;29.00;;;;;;;7.04;64.43;99119.03;1756840;81;21090;-76
2021/03/04 07:31:18;;;;;;;56.55;27.50;;;;;;;7.01;64.41;99116.91;1756878;81;21064;-78
2021/03/04 07:33:48;;;;;;;61.28;27.87;;;;;;;7.07;64.55;99114.89;1756979;81;21477;-77
2021/03/04 07:36:22;;;;;;;59.27;27.70;;;;;;;7.14;63.34;99107.11;1749802;81;21385;-81
2021/03/04 07:38:59;;;;;;;68.15;29.72;;;;;;;7.19;64.18;99113.28;1756050;81;21204;-85
2021/03/04 07:41:43;;;;;;;62.85;29.12;;;;;;;7.35;63.30;99119.80;1753995;81;21105;-77
2021/03/04 07:44:25;;;;;;;64.22;30.97;;;;;;;7.56;62.94;99111.39;1756756;81;21136;-78
2021/03/04 07:47:01;;;;;;;50.15;25.32;;;;;;;7.81;62.31;99104.01;1756318;81;21634;-75
2021/03/04 07:49:35;;;;;;;57.73;25.90;;;;;;;8.05;60.46;99104.28;1756600;81;21428;-81
2021/03/04 07:52:19;;;;;;;53.28;26.75;;;;;;;8.15;59.59;99101.28;1756424;81;21148;-77
2021/03/04 07:54:55;;;;;;;49.42;24.65;;;;;;;8.22;59.08;99103.02;1726742;83;20902;-76
2021/03/04 07:57:25;;;;;;;57.75;26.25;;;;;;;8.31;58.73;99092.95;1726781;83;21026;-82
2021/03/04 07:59:58;;;;;;;60.55;28.35;;;;;;;8.47;58.79;99086.58;1726810;83;21125;-80
2021/03/04 08:02:32;;;;;;;;;;;;;;;8.71;58.55;99081.53;1729366;83;21386;-81
2021/03/04 08:05:13;;;;;;;57.85;24.32;;;;;;;8.97;58.08;99081.66;1739438;81;20134;-78
2021/03/04 08:07:45;;;;;;;43.87;23.62;;;;;;;9.11;55.86;99079.61;1746945;81;21180;-80
2021/03/04 08:10:21;;;;;;;51.40;26.55;;;;;;;9.17;55.41;99085.19;1756951;81;21120;-79
2021/03/04 08:13:00;;;;;;;56.83;27.40;;;;;;;9.23;55.21;99079.81;1756646;81;21505;-79
2021/03/04 08:15:43;;;;;;;60.03;27.82;;;;;;;9.28;55.00;99070.61;1756855;81;21380;-77
2021/03/04 08:18:22;;;;;;;55.08;27.98;;;;;;;9.22;54.22;99054.92;1751149;81;21137;-77
2021/03/04 08:20:51;;;;;;;54.35;27.20;;;;;;;9.12;54.67;99057.95;1746786;82;21538;-78
2021/03/04 08:23:19;;;;;;;55.38;25.72;;;;;;;9.05;54.89;99049.39;1743738;82;21212;-80
2021/03/04 08:25:47;;;;;;;54.13;25.57;;;;;;;9.01;54.84;99055.25;1746039;82;21569;-79
2021/03/04 08:28:27;;;;;;;50.75;25.72;;;;;;;9.01;54.81;99047.05;1746293;82;21458;-79
2021/03/04 08:30:54;;;;;;;48.95;24.60;;;;;;;9.03;54.87;99050.83;1745041;82;21624;-79
2021/03/04 08:33:22;;;;;;;51.50;26.17;;;;;;;9.08;54.64;99050.69;1744930;82;21616;-79
2021/03/04 08:35:50;;;;;;;55.60;27.50;;;;;;;9.15;54.79;99038.70;1745528;82;21196;-77
2021/03/04 08:38:20;;;;;;;55.50;28.00;;;;;;;9.43;54.79;99038.66;1745440;82;21165;-77
2021/03/04 08:40:51;;;;;;;53.52;27.05;;;;;;;9.77;53.49;99040.63;1746015;80;22636;-79
2021/03/04 08:43:21;;;;;;;55.00;28.60;;;;;;;9.83;52.35;99025.59;1746427;82;21105;-79
2021/03/04 08:46:03;;;;;;;52.70;27.67;;;;;;;9.79;52.86;99030.14;1746709;82;21502;-80
2021/03/04 08:48:32;;;;;;;54.58;26.10;;;;;;;9.85;52.54;99026.64;1746742;82;21128;-79
2021/03/04 08:51:03;;;;;;;58.83;28.38;;;;;;;9.94;52.57;99021.40;1746726;82;21206;-80
2021/03/04 08:53:33;;;;;;;59.60;28.38;;;;;;;9.99;52.12;99011.39;1746186;82;21582;-80
2021/03/04 08:56:03;;;;;;;58.35;26.80;;;;;;;10.04;52.42;99009.86;1717077;83;21661;-81
2021/03/04 08:58:32;;;;;;;57.00;27.95;;;;;;;10.23;52.12;98996.63;1716938;83;21061;-79
2021/03/04 09:01:03;;;;;;;53.98;29.05;;;;;;;10.47;51.65;99001.53;1721301;82;21598;-79
2021/03/04 09:03:37;;;;;;;56.83;27.40;;;;;;;10.61;50.71;99001.33;1728771;82;21138;-79
2021/03/04 09:06:09;;;;;;;56.98;29.07;;;;;;;10.51;50.75;98999.74;1728377;82;21468;-79
2021/03/04 09:08:45;;;;;;;57.20;27.60;;;;;;;10.45;50.89;98986.77;1729699;82;20968;-78
2021/03/04 09:11:28;;;;;;;53.33;28.02;;;;;;;10.50;50.89;98997.56;1729745;82;20978;-75
2021/03/04 09:14:03;;;;;;;53.85;27.98;;;;;;;10.49;50.42;98989.09;1731108;82;21164;-78
2021/03/04 09:16:42;;;;;;;53.48;26.85;;;;;;;10.37;50.47;98991.75;1710681;82;21012;-76
2021/03/04 09:19:11;;;;;;;55.43;26.87;;;;;;;10.17;51.15;98981.44;1717242;81;21393;-77
2021/03/04 09:21:39;;;;;;;53.17;27.40;;;;;;;10.09;50.93;98974.04;1712194;83;21524;-78
2021/03/04 09:24:07;;;;;;;54.00;28.15;;;;;;;10.09;51.22;98971.30;1720270;82;21502;-79
2021/03/04 09:26:35;;;;;;;57.03;26.97;;;;;;;10.13;51.78;98966.77;1682442;84;21091;-78
2021/03/04 09:29:03;;;;;;;55.08;27.70;;;;;;;10.23;51.26;98970.56;1708859;84;21597;-78
2021/03/04 09:31:32;;;;;;;52.90;27.70;;;;;;;10.23;50.89;98951.36;1711226;83;21121;-78
2021/03/04 09:34:03;;;;;;;53.23;28.42;;;;;;;10.29;51.22;98955.54;1713565;83;21176;-79
2021/03/04 09:36:31;;;;;;;55.98;26.90;;;;;;;10.36;50.31;98950.35;1679456;85;20994;-79
2021/03/04 09:38:58;;;;;;;53.38;28.92;;;;;;;10.22;50.62;98946.44;1716137;83;21045;-79
2021/03/04 09:41:26;;;;;;;56.02;27.52;;;;;;;10.19;51.37;98945.73;1679262;85;21133;-79
2021/03/04 09:44:03;;;;;;;52.20;26.10;;;;;;;10.33;51.13;98935.92;1716287;83;21260;-80
2021/03/04 09:46:38;;;;;;;57.48;28.25;;;;;;;10.46;50.22;98923.89;1716069;83;21003;-80
2021/03/04 09:49:15;;;;;;;60.95;29.70;;;;;;;10.45;49.75;98926.39;1679347;85;21077;-80
2021/03/04 09:51:47;;;;;;;59.85;27.87;;;;;;;10.32;49.81;98922.53;1679205;85;21137;-77
2021/03/04 09:54:27;;;;;;;55.10;27.20;;;;;;;10.28;50.33;98909.23;1737383;82;21099;-77
2021/03/04 09:57:08;;;;;;;62.23;29.87;;;;;;;10.42;50.02;98896.07;1738356;82;21139;-79
2021/03/04 09:59:51;;;;;;;53.58;27.55;;;;;;;10.57;49.89;98907.30;1738155;82;20955;-78
2021/03/04 10:02:25;;;;;;;51.37;26.33;;;;;;;10.68;49.75;98897.31;1738145;82;21162;-77
2021/03/04 10:05:03;;;;;;;51.45;26.12;;;;;;;10.88;49.57;98897.91;1737345;82;21601;-76
2021/03/04 10:07:32;;;;;;;52.58;27.62;;;;;;;11.22;49.16;98896.83;1738218;82;21137;-78
2021/03/04 10:09:59;;;;;;;65.17;30.90;;;;;;;11.44;47.96;98892.36;1738211;82;21194;-78
2021/03/04 10:12:27;;;;;;;54.33;27.55;;;;;;;11.53;47.76;98890.91;1738083;82;20991;-78
2021/03/04 10:14:55;;;;;;;54.65;26.70;;;;;;;11.55;47.10;98876.26;1724799;82;20936;-79
2021/03/04 10:17:23;;;;;;;59.42;28.98;;;;;;;11.46;47.53;98880.47;1711664;82;21568;-78
2021/03/04 10:19:51;;;;;;;57.98;27.17;;;;;;;11.53;47.97;98862.05;1709677;83;21133;-81
2021/03/04 10:22:19;;;;;;;54.05;27.77;;;;;;;11.64;47.20;98865.95;1705512;83;21393;-79
2021/03/04 10:24:46;;;;;;;61.73;28.83;;;;;;;11.68;47.45;98861.95;1702779;83;21490;-79
2021/03/04 10:27:20;;;;;;;55.52;26.65;;;;;;;11.75;46.50;98857.51;1707755;83;21668;-72
2021/03/04 10:29:47;;;;;;;45.75;24.92;;;;;;;11.64;46.79;98852.20;1716140;83;21090;-68
2021/03/04 10:32:15;;;;;;;52.08;27.27;;;;;;;11.53;47.17;98831.24;1716547;83;21069;-68
2021/03/04 10:34:43;;;;;;;60.55;28.80;;;;;;;11.59;47.40;98846.92;1716541;83;21211;-68
2021/03/04 10:37:10;;;;;;;54.67;26.97;;;;;;;11.65;47.18;98830.45;1716164;83;21613;-68
2021/03/04 10:39:38;;;;;;;57.90;25.97;;;;;;;11.63;46.95;98834.11;1716328;83;21101;-68
2021/03/04 10:42:06;;;;;;;48.75;26.10;;;;;;;11.54;47.46;98826.55;1716612;83;21489;-69
2021/03/04 10:44:35;;;;;;;55.60;27.60;;;;;;;11.53;47.34;98820.25;1716725;83;21073;-69
2021/03/04 10:47:04;;;;;;;49.70;26.50;;;;;;;11.57;47.35;98819.77;1716629;83;21432;-67
2021/03/04 10:49:32;;;;;;;53.52;28.12;;;;;;;11.58;47.51;98806.83;1715724;83;21176;-68
2021/03/04 10:52:00;;;;;;;51.58;25.23;;;;;;;11.62;47.46;98811.08;1715955;83;21180;-69
2021/03/04 10:54:27;;;;;;;49.65;24.12;;;;;;;11.66;47.56;98805.94;1716570;83;20947;-68
2021/03/04 10:56:56;;;;;;;47.27;24.00;;;;;;;11.78;47.89;98800.48;1716586;83;21070;-69
2021/03/04 10:59:25;;;;;;;46.13;25.77;;;;;;;11.96;46.75;98801.66;1716609;83;21359;-70
2021/03/04 11:01:53;;;;;;;46.28;24.98;;;;;;;12.00;46.77;98814.95;1716518;83;21202;-69
2021/03/04 11:04:22;;;;;;;49.53;26.95;;;;;;;11.72;47.17;98803.20;1716322;83;42896;-70
2021/03/04 11:06:50;;;;;;;44.73;24.75;;;;;;;11.34;48.18;98802.66;1715899;83;21256;-70
2021/03/04 11:09:19;;;;;;;46.63;24.90;;;;;;;11.00;49.33;98806.53;1715907;83;21121;-68
2021/03/04 11:11:46;;;;;;;49.10;25.37;;;;;;;10.70;49.81;98809.38;1715834;82;22790;-69
2021/03/04 11:14:15;;;;;;;45.43;23.40;;;;;;;10.44;50.75;98805.99;1715957;83;21022;-68
2021/03/04 11:16:43;;;;;;;47.45;25.32;;;;;;;10.16;51.86;98789.21;1715991;83;21156;-68
2021/03/04 11:19:11;;;;;;;45.45;25.10;;;;;;;9.99;52.63;98794.21;1735582;82;21651;-69
2021/03/04 11:21:40;;;;;;;45.38;23.87;;;;;;;9.88;52.92;98786.12;1745833;81;21090;-68
2021/03/04 11:24:09;;;;;;;46.75;25.30;;;;;;;9.84;53.50;98790.65;1741610;82;21445;-68
2021/03/04 11:26:38;;;;;;;58.50;25.90;;;;;;;9.93;53.70;98778.52;1752191;81;21517;-68
2021/03/04 11:29:07;;;;;;;43.15;22.25;;;;;;;10.23;53.18;98782.66;1745782;82;21126;-69
2021/03/04 11:31:36;;;;;;;52.00;24.00;;;;;;;10.50;52.55;98768.42;1739212;82;21114;-69
2021/03/04 11:34:04;;;;;;;54.08;26.33;;;;;;;10.66;52.05;98773.31;1739520;82;21137;-68